To NAV CANADA Home Page Login to a new session Search on AWWS site Feedback and Comments Disclaimer Vers la page française équivalente Tips FAQ What's new on the site To the Forecasts and Observations / NOTAM section To "File a Flight Plan" website Publications and other links Update of the User's profile FIC Telephone Numbers My Weather Data Folder Route Weather Data Regional Weather Data Local Weather Data To the Forecasts and Observations / NOTAM section
Request Generated 03/04/2015 at 15:12:56 UTC . Weather information available at that time is displayed.

METAR/TAF

QUEBEC/JEAN LESAGE INTL/QC    

METAR CYQB 041500Z 25015KT 12SM FEW025 SCT200 M04/M09 A2960 RMK
CF2CS2 SLP028=
METAR CYQB 041400Z 25015KT 10SM FEW020 SCT200 M05/M09 A2960 RMK
SC1CS2 SLP028=
SPECI CYQB 041322Z 25012KT 8SM FEW012 BKN020 BKN080 M06/M08 A2959 RMK
SF2SC3AC1 SLP026=
METAR CYQB 041300Z 25012G17KT 6SM -SN SCT012 BKN020 M06/M09 A2958 RMK
SF4SC3 SLP022=

TAF AMD CYQB 041258Z 0412/0512 25015KT 6SM -SN SCT009 OVC025 TEMPO
0412/0414 5SM -SN OVC009
FM041400 25020G30KT 21/2SM -SHSN BLSN OVC015 TEMPO 0414/0418 P6SM
NSW SCT015 OVC030 PROB30 0414/0418 1SM -SHSN BLSN VV006
FM041800 25020G30KT P6SM -SHSN SCT015 OVC030 TEMPO 0418/0421
21/2SM -SHSN BLSN OVC015 PROB30 0418/0421 1/4SM +SHSN BLSN VV002
FM042100 25012KT P6SM -SHSN BKN040
FM050400 28012KT P6SM FEW060
RMK NXT FCST BY 041800Z=
Your time UTC time
Weather data provided by Environment Canada and NAV CANADA